sensor_id;sensor_type;location;lat;lon;timestamp;pressure;altitude;pressure_sealevel;temperature;humidity
32875;BME280;40468;42.128;24.750;2023-04-26T00:01:15;98727.66;;;13.11;77.45
32875;BME280;40468;42.128;24.750;2023-04-26T00:02:47;98742.66;;;13.20;77.64
32875;BME280;40468;42.128;24.750;2023-04-26T00:04:18;98736.69;;;13.18;77.66
32875;BME280;40468;42.128;24.750;2023-04-26T00:05:51;98738.25;;;13.20;77.62
32875;BME280;40468;42.128;24.750;2023-04-26T00:07:23;98737.88;;;13.14;77.88
32875;BME280;40468;42.128;24.750;2023-04-26T00:08:54;98738.47;;;13.17;77.61
32875;BME280;40468;42.128;24.750;2023-04-26T00:10:26;98744.53;;;13.18;77.88
32875;BME280;40468;42.128;24.750;2023-04-26T00:11:58;98733.13;;;13.19;78.07
32875;BME280;40468;42.128;24.750;2023-04-26T00:13:30;98730.50;;;13.19;77.92
32875;BME280;40468;42.128;24.750;2023-04-26T00:15:02;98730.72;;;13.16;77.87
32875;BME280;40468;42.128;24.750;2023-04-26T00:16:33;98728.63;;;13.21;78.02
32875;BME280;40468;42.128;24.750;2023-04-26T00:18:05;98730.63;;;13.17;78.04
32875;BME280;40468;42.128;24.750;2023-04-26T00:19:37;98683.59;;;12.93;78.06
32875;BME280;40468;42.128;24.750;2023-04-26T00:21:10;98716.00;;;13.15;78.23
32875;BME280;40468;42.128;24.750;2023-04-26T00:22:42;98713.28;;;13.16;78.37
32875;BME280;40468;42.128;24.750;2023-04-26T00:24:14;98716.75;;;13.17;78.14
32875;BME280;40468;42.128;24.750;2023-04-26T00:25:45;98708.28;;;13.13;78.12
32875;BME280;40468;42.128;24.750;2023-04-26T00:27:17;98712.34;;;13.17;78.08
32875;BME280;40468;42.128;24.750;2023-04-26T00:28:49;98708.91;;;13.17;78.22
32875;BME280;40468;42.128;24.750;2023-04-26T00:30:20;98709.13;;;13.14;78.27
32875;BME280;40468;42.128;24.750;2023-04-26T00:31:52;98714.00;;;13.18;78.21
32875;BME280;40468;42.128;24.750;2023-04-26T00:33:23;98712.22;;;13.19;77.90
32875;BME280;40468;42.128;24.750;2023-04-26T00:34:55;98709.72;;;13.17;78.04
32875;BME280;40468;42.128;24.750;2023-04-26T00:36:28;98709.72;;;13.17;78.03
32875;BME280;40468;42.128;24.750;2023-04-26T00:38:01;98699.28;;;13.17;78.06
32875;BME280;40468;42.128;24.750;2023-04-26T00:39:33;98698.44;;;13.17;77.60
32875;BME280;40468;42.128;24.750;2023-04-26T00:41:05;98695.09;;;13.15;77.93
32875;BME280;40468;42.128;24.750;2023-04-26T00:42:37;98687.25;;;13.15;77.49
32875;BME280;40468;42.128;24.750;2023-04-26T00:44:09;98688.44;;;13.11;77.66
32875;BME280;40468;42.128;24.750;2023-04-26T00:45:40;98680.69;;;13.09;77.36
32875;BME280;40468;42.128;24.750;2023-04-26T00:47:12;98679.53;;;13.13;77.42
32875;BME280;40468;42.128;24.750;2023-04-26T00:48:43;98677.75;;;13.14;77.21
32875;BME280;40468;42.128;24.750;2023-04-26T00:50:15;98660.97;;;13.05;77.37
32875;BME280;40468;42.128;24.750;2023-04-26T00:51:49;98663.94;;;13.12;77.24
32875;BME280;40468;42.128;24.750;2023-04-26T00:53:21;98588.22;;;12.64;76.95
32875;BME280;40468;42.128;24.750;2023-04-26T00:54:54;98669.69;;;13.17;76.69
32875;BME280;40468;42.128;24.750;2023-04-26T00:56:25;98674.56;;;13.21;76.40
32875;BME280;40468;42.128;24.750;2023-04-26T00:57:57;98668.41;;;13.23;76.26
32875;BME280;40468;42.128;24.750;2023-04-26T00:59:28;98670.16;;;13.22;76.24
32875;BME280;40468;42.128;24.750;2023-04-26T01:01:00;98663.16;;;13.23;76.13
32875;BME280;40468;42.128;24.750;2023-04-26T01:02:31;98661.13;;;13.15;76.03
32875;BME280;40468;42.128;24.750;2023-04-26T01:04:03;98670.50;;;13.17;75.46
32875;BME280;40468;42.128;24.750;2023-04-26T01:05:36;98666.13;;;13.18;75.72
32875;BME280;40468;42.128;24.750;2023-04-26T01:07:09;98666.34;;;13.15;75.14
32875;BME280;40468;42.128;24.750;2023-04-26T01:08:42;98674.91;;;13.17;75.33
32875;BME280;40468;42.128;24.750;2023-04-26T01:10:14;98646.34;;;13.03;74.87
32875;BME280;40468;42.128;24.750;2023-04-26T01:11:46;98662.31;;;13.11;74.89
32875;BME280;40468;42.128;24.750;2023-04-26T01:13:18;98659.78;;;13.09;74.47
32875;BME280;40468;42.128;24.750;2023-04-26T01:14:50;98672.63;;;13.12;74.58
32875;BME280;40468;42.128;24.750;2023-04-26T01:16:22;98672.75;;;13.11;74.01
32875;BME280;40468;42.128;24.750;2023-04-26T01:17:54;98664.28;;;13.07;74.02
32875;BME280;40468;42.128;24.750;2023-04-26T01:19:26;98664.91;;;13.11;73.64
32875;BME280;40468;42.128;24.750;2023-04-26T01:20:58;98669.50;;;13.07;73.52
32875;BME280;40468;42.128;24.750;2023-04-26T01:22:32;98662.63;;;13.06;73.36
32875;BME280;40468;42.128;24.750;2023-04-26T01:24:05;98657.03;;;13.00;73.27
32875;BME280;40468;42.128;24.750;2023-04-26T01:25:37;98675.69;;;13.06;73.09
32875;BME280;40468;42.128;24.750;2023-04-26T01:27:09;98670.59;;;13.05;73.38
32875;BME280;40468;42.128;24.750;2023-04-26T01:28:41;98674.03;;;13.05;72.96
32875;BME280;40468;42.128;24.750;2023-04-26T01:30:13;98673.31;;;13.03;72.69
32875;BME280;40468;42.128;24.750;2023-04-26T01:31:44;98664.03;;;12.99;72.88
32875;BME280;40468;42.128;24.750;2023-04-26T01:33:16;98664.63;;;13.03;72.49
32875;BME280;40468;42.128;24.750;2023-04-26T01:34:48;98655.69;;;12.94;72.45
32875;BME280;40468;42.128;24.750;2023-04-26T01:36:20;98653.69;;;12.97;72.33
32875;BME280;40468;42.128;24.750;2023-04-26T01:37:52;98659.41;;;13.03;72.35
32875;BME280;40468;42.128;24.750;2023-04-26T01:39:24;98658.69;;;13.01;72.30
32875;BME280;40468;42.128;24.750;2023-04-26T01:40:55;98658.06;;;12.97;72.24
32875;BME280;40468;42.128;24.750;2023-04-26T01:42:27;98659.63;;;13.00;72.19
32875;BME280;40468;42.128;24.750;2023-04-26T01:43:59;98654.50;;;12.98;72.08
32875;BME280;40468;42.128;24.750;2023-04-26T01:45:31;98642.53;;;12.95;71.87
32875;BME280;40468;42.128;24.750;2023-04-26T01:47:03;98647.41;;;13.00;71.91
32875;BME280;40468;42.128;24.750;2023-04-26T01:48:34;98643.22;;;12.97;71.45
32875;BME280;40468;42.128;24.750;2023-04-26T01:50:07;98638.00;;;12.97;71.42
32875;BME280;40468;42.128;24.750;2023-04-26T01:51:39;98644.06;;;12.98;71.48
32875;BME280;40468;42.128;24.750;2023-04-26T01:53:12;98609.19;;;12.75;71.29
32875;BME280;40468;42.128;24.750;2023-04-26T01:54:44;98635.75;;;12.93;70.97
32875;BME280;40468;42.128;24.750;2023-04-26T01:56:16;98640.59;;;12.97;70.96
32875;BME280;40468;42.128;24.750;2023-04-26T01:57:47;98651.56;;;13.03;70.87
32875;BME280;40468;42.128;24.750;2023-04-26T01:59:19;98647.06;;;13.05;71.05
32875;BME280;40468;42.128;24.750;2023-04-26T02:00:51;98608.97;;;12.78;70.61
32875;BME280;40468;42.128;24.750;2023-04-26T02:02:23;98639.47;;;13.02;70.65
32875;BME280;40468;42.128;24.750;2023-04-26T02:03:55;98640.38;;;13.01;70.37
32875;BME280;40468;42.128;24.750;2023-04-26T02:05:27;98658.44;;;13.04;70.38
32875;BME280;40468;42.128;24.750;2023-04-26T02:06:58;98649.91;;;13.02;70.43
32875;BME280;40468;42.128;24.750;2023-04-26T02:08:31;98645.13;;;12.95;70.16
32875;BME280;40468;42.128;24.750;2023-04-26T02:10:03;98648.81;;;12.93;70.29
32875;BME280;40468;42.128;24.750;2023-04-26T02:11:35;98657.47;;;12.93;69.96
32875;BME280;40468;42.128;24.750;2023-04-26T02:13:07;98657.78;;;12.89;70.15
32875;BME280;40468;42.128;24.750;2023-04-26T02:14:39;98657.91;;;12.87;70.19
32875;BME280;40468;42.128;24.750;2023-04-26T02:16:10;98653.84;;;12.83;70.65
32875;BME280;40468;42.128;24.750;2023-04-26T02:17:41;98657.41;;;12.82;70.46
32875;BME280;40468;42.128;24.750;2023-04-26T02:19:13;98652.72;;;12.74;70.59
32875;BME280;40468;42.128;24.750;2023-04-26T02:20:45;98657.94;;;12.74;70.80
32875;BME280;40468;42.128;24.750;2023-04-26T02:22:16;98666.44;;;12.78;70.55
32875;BME280;40468;42.128;24.750;2023-04-26T02:23:49;98657.25;;;12.72;70.73
32875;BME280;40468;42.128;24.750;2023-04-26T02:25:20;98670.09;;;12.75;70.82
32875;BME280;40468;42.128;24.750;2023-04-26T02:26:52;98671.00;;;12.74;70.76
32875;BME280;40468;42.128;24.750;2023-04-26T02:28:24;98675.31;;;12.75;70.91
32875;BME280;40468;42.128;24.750;2023-04-26T02:29:56;98662.56;;;12.71;70.72
32875;BME280;40468;42.128;24.750;2023-04-26T02:31:28;98668.41;;;12.74;71.09
32875;BME280;40468;42.128;24.750;2023-04-26T02:32:59;98667.69;;;12.72;71.05
32875;BME280;40468;42.128;24.750;2023-04-26T02:34:31;98665.53;;;12.66;71.28
32875;BME280;40468;42.128;24.750;2023-04-26T02:36:04;98669.06;;;12.65;71.37
32875;BME280;40468;42.128;24.750;2023-04-26T02:37:36;98660.41;;;12.65;71.20
32875;BME280;40468;42.128;24.750;2023-04-26T02:39:08;98662.91;;;12.66;71.59
32875;BME280;40468;42.128;24.750;2023-04-26T02:40:41;98662.41;;;12.61;71.26
32875;BME280;40468;42.128;24.750;2023-04-26T02:42:13;98673.59;;;12.63;71.65
32875;BME280;40468;42.128;24.750;2023-04-26T02:43:45;98671.06;;;12.62;71.65
32875;BME280;40468;42.128;24.750;2023-04-26T02:45:17;98672.25;;;12.58;71.67
32875;BME280;40468;42.128;24.750;2023-04-26T02:46:49;98679.84;;;12.61;71.82
32875;BME280;40468;42.128;24.750;2023-04-26T02:48:20;98678.16;;;12.60;72.19
32875;BME280;40468;42.128;24.750;2023-04-26T02:49:51;98669.94;;;12.53;72.13
32875;BME280;40468;42.128;24.750;2023-04-26T02:51:23;98673.28;;;12.55;72.40
32875;BME280;40468;42.128;24.750;2023-04-26T02:52:56;98660.91;;;12.46;72.31
32875;BME280;40468;42.128;24.750;2023-04-26T02:54:29;98680.09;;;12.58;72.59
32875;BME280;40468;42.128;24.750;2023-04-26T02:56:00;98676.72;;;12.56;72.75
32875;BME280;40468;42.128;24.750;2023-04-26T02:57:32;98680.19;;;12.56;72.90
32875;BME280;40468;42.128;24.750;2023-04-26T02:59:04;98686.97;;;12.59;72.53
32875;BME280;40468;42.128;24.750;2023-04-26T03:00:36;98686.22;;;12.57;72.63
32875;BME280;40468;42.128;24.750;2023-04-26T03:02:08;98679.34;;;12.56;72.75
32875;BME280;40468;42.128;24.750;2023-04-26T03:03:40;98686.34;;;12.55;73.10
32875;BME280;40468;42.128;24.750;2023-04-26T03:05:12;98680.41;;;12.53;73.29
32875;BME280;40468;42.128;24.750;2023-04-26T03:06:44;98667.91;;;12.45;73.49
32875;BME280;40468;42.128;24.750;2023-04-26T03:08:15;98670.91;;;12.52;73.24
32875;BME280;40468;42.128;24.750;2023-04-26T03:09:48;98661.00;;;12.44;73.26
32875;BME280;40468;42.128;24.750;2023-04-26T03:11:20;98669.34;;;12.49;73.45
32875;BME280;40468;42.128;24.750;2023-04-26T03:12:52;98663.16;;;12.50;73.75
32875;BME280;40468;42.128;24.750;2023-04-26T03:14:24;98665.06;;;12.48;73.58
32875;BME280;40468;42.128;24.750;2023-04-26T03:15:56;98664.22;;;12.48;73.99
32875;BME280;40468;42.128;24.750;2023-04-26T03:17:28;98647.94;;;12.44;73.66
32875;BME280;40468;42.128;24.750;2023-04-26T03:19:00;98656.38;;;12.48;73.82
32875;BME280;40468;42.128;24.750;2023-04-26T03:20:31;98648.66;;;12.46;74.05
32875;BME280;40468;42.128;24.750;2023-04-26T03:22:03;98650.75;;;12.41;73.99
32875;BME280;40468;42.128;24.750;2023-04-26T03:23:35;98644.31;;;12.34;74.20
32875;BME280;40468;42.128;24.750;2023-04-26T03:25:08;98650.75;;;12.41;74.28
32875;BME280;40468;42.128;24.750;2023-04-26T03:26:39;98645.66;;;12.40;74.37
32875;BME280;40468;42.128;24.750;2023-04-26T03:28:11;98654.31;;;12.40;74.34
32875;BME280;40468;42.128;24.750;2023-04-26T03:29:43;98651.50;;;12.43;74.40
32875;BME280;40468;42.128;24.750;2023-04-26T03:31:15;98655.78;;;12.44;74.36
32875;BME280;40468;42.128;24.750;2023-04-26T03:32:47;98661.72;;;12.46;74.19
32875;BME280;40468;42.128;24.750;2023-04-26T03:34:19;98654.94;;;12.44;74.01
32875;BME280;40468;42.128;24.750;2023-04-26T03:35:50;98669.44;;;12.48;74.41
32875;BME280;40468;42.128;24.750;2023-04-26T03:37:22;98660.28;;;12.42;74.49
32875;BME280;40468;42.128;24.750;2023-04-26T03:38:54;98675.94;;;12.42;74.43
32875;BME280;40468;42.128;24.750;2023-04-26T03:40:27;98682.22;;;12.40;74.78
32875;BME280;40468;42.128;24.750;2023-04-26T03:41:58;98674.47;;;12.38;74.72
32875;BME280;40468;42.128;24.750;2023-04-26T03:43:30;98684.09;;;12.38;74.46
32875;BME280;40468;42.128;24.750;2023-04-26T03:45:03;98676.69;;;12.32;74.74
32875;BME280;40468;42.128;24.750;2023-04-26T03:46:35;98685.34;;;12.32;74.79
32875;BME280;40468;42.128;24.750;2023-04-26T03:48:07;98673.78;;;12.23;74.93
32875;BME280;40468;42.128;24.750;2023-04-26T03:49:39;98676.09;;;12.28;74.73
32875;BME280;40468;42.128;24.750;2023-04-26T03:51:09;98682.13;;;12.28;75.01
32875;BME280;40468;42.128;24.750;2023-04-26T03:52:41;98690.78;;;12.29;74.78
32875;BME280;40468;42.128;24.750;2023-04-26T03:54:12;98685.06;;;12.24;74.73
32875;BME280;40468;42.128;24.750;2023-04-26T03:55:45;98652.63;;;12.02;74.84
32875;BME280;40468;42.128;24.750;2023-04-26T03:57:17;98698.84;;;12.26;74.82
32875;BME280;40468;42.128;24.750;2023-04-26T03:58:48;98702.41;;;12.25;75.02
32875;BME280;40468;42.128;24.750;2023-04-26T04:00:20;98699.88;;;12.23;75.02
32875;BME280;40468;42.128;24.750;2023-04-26T04:01:52;98695.00;;;12.19;75.04
32875;BME280;40468;42.128;24.750;2023-04-26T04:03:24;98693.31;;;12.18;74.79
32875;BME280;40468;42.128;24.750;2023-04-26T04:04:56;98689.03;;;12.17;74.56
32875;BME280;40468;42.128;24.750;2023-04-26T04:06:27;98700.09;;;12.20;74.87
32875;BME280;40468;42.128;24.750;2023-04-26T04:07:58;98698.66;;;12.16;74.61
32875;BME280;40468;42.128;24.750;2023-04-26T04:09:31;98700.09;;;12.20;74.44
32875;BME280;40468;42.128;24.750;2023-04-26T04:11:04;98702.72;;;12.20;74.54
32875;BME280;40468;42.128;24.750;2023-04-26T04:12:36;98700.94;;;12.21;74.29
32875;BME280;40468;42.128;24.750;2023-04-26T04:14:08;98697.41;;;12.22;74.64
32875;BME280;40468;42.128;24.750;2023-04-26T04:15:40;98688.81;;;12.20;74.54
32875;BME280;40468;42.128;24.750;2023-04-26T04:17:12;98699.66;;;12.26;74.01
32875;BME280;40468;42.128;24.750;2023-04-26T04:18:43;98703.00;;;12.28;74.15
32875;BME280;40468;42.128;24.750;2023-04-26T04:20:16;98701.03;;;12.32;74.15
32875;BME280;40468;42.128;24.750;2023-04-26T04:21:46;98691.53;;;12.31;73.81
32875;BME280;40468;42.128;24.750;2023-04-26T04:23:18;98705.94;;;12.37;74.03
32875;BME280;40468;42.128;24.750;2023-04-26T04:24:50;98708.41;;;12.38;73.86
32875;BME280;40468;42.128;24.750;2023-04-26T04:26:25;98696.09;;;12.40;73.64
32875;BME280;40468;42.128;24.750;2023-04-26T04:27:57;98699.53;;;12.41;73.58
32875;BME280;40468;42.128;24.750;2023-04-26T04:29:29;98700.28;;;12.43;73.65
32875;BME280;40468;42.128;24.750;2023-04-26T04:31:01;98690.88;;;12.40;73.64
32875;BME280;40468;42.128;24.750;2023-04-26T04:32:33;98695.88;;;12.43;73.40
32875;BME280;40468;42.128;24.750;2023-04-26T04:34:05;98694.84;;;12.46;73.63
32875;BME280;40468;42.128;24.750;2023-04-26T04:35:39;98697.84;;;12.52;73.73
32875;BME280;40468;42.128;24.750;2023-04-26T04:37:14;98700.25;;;12.56;73.69
32875;BME280;40468;42.128;24.750;2023-04-26T04:38:46;98702.63;;;12.59;73.75
32875;BME280;40468;42.128;24.750;2023-04-26T04:40:18;98691.66;;;12.53;73.54
32875;BME280;40468;42.128;24.750;2023-04-26T04:41:50;98700.41;;;12.65;73.51
32875;BME280;40468;42.128;24.750;2023-04-26T04:43:23;98707.19;;;12.68;73.30
32875;BME280;40468;42.128;24.750;2023-04-26T04:44:55;98708.75;;;12.70;73.16
32875;BME280;40468;42.128;24.750;2023-04-26T04:46:29;98708.66;;;12.72;73.28
32875;BME280;40468;42.128;24.750;2023-04-26T04:48:01;98697.25;;;12.73;72.98
32875;BME280;40468;42.128;24.750;2023-04-26T04:49:34;98704.97;;;12.74;73.21
32875;BME280;40468;42.128;24.750;2023-04-26T04:51:07;98705.72;;;12.77;73.22
32875;BME280;40468;42.128;24.750;2023-04-26T04:52:39;98705.50;;;12.80;73.08
32875;BME280;40468;42.128;24.750;2023-04-26T04:54:13;98703.47;;;12.83;73.00
32875;BME280;40468;42.128;24.750;2023-04-26T04:55:45;98704.94;;;12.87;72.75
32875;BME280;40468;42.128;24.750;2023-04-26T04:57:19;98712.56;;;12.90;72.56
32875;BME280;40468;42.128;24.750;2023-04-26T04:58:51;98707.13;;;12.93;72.52
32875;BME280;40468;42.128;24.750;2023-04-26T05:00:22;98709.28;;;13.00;72.53
32875;BME280;40468;42.128;24.750;2023-04-26T05:01:54;98706.59;;;13.12;72.37
32875;BME280;40468;42.128;24.750;2023-04-26T05:03:26;98703.97;;;13.25;71.93
32875;BME280;40468;42.128;24.750;2023-04-26T05:04:59;98706.59;;;13.36;71.63
32875;BME280;40468;42.128;24.750;2023-04-26T05:06:31;98699.25;;;13.41;71.49
32875;BME280;40468;42.128;24.750;2023-04-26T05:08:08;98705.00;;;13.47;70.97
32875;BME280;40468;42.128;24.750;2023-04-26T05:09:41;98706.31;;;13.52;70.91
32875;BME280;40468;42.128;24.750;2023-04-26T05:11:13;98704.91;;;13.59;70.86
32875;BME280;40468;42.128;24.750;2023-04-26T05:12:46;98706.50;;;13.73;70.63
32875;BME280;40468;42.128;24.750;2023-04-26T05:14:19;98709.63;;;14.01;70.23
32875;BME280;40468;42.128;24.750;2023-04-26T05:15:51;98704.84;;;14.28;69.59
32875;BME280;40468;42.128;24.750;2023-04-26T05:17:23;98663.91;;;14.39;68.88
32875;BME280;40468;42.128;24.750;2023-04-26T05:18:55;98700.88;;;14.90;67.70
32875;BME280;40468;42.128;24.750;2023-04-26T05:20:27;98703.44;;;15.13;66.96
32875;BME280;40468;42.128;24.750;2023-04-26T05:22:00;98701.13;;;15.19;66.43
32875;BME280;40468;42.128;24.750;2023-04-26T05:23:32;98700.38;;;15.29;66.41
32875;BME280;40468;42.128;24.750;2023-04-26T05:25:07;98700.31;;;15.40;65.84
32875;BME280;40468;42.128;24.750;2023-04-26T05:26:40;98699.75;;;15.57;65.31
32875;BME280;40468;42.128;24.750;2023-04-26T05:28:13;98692.81;;;15.88;64.80
32875;BME280;40468;42.128;24.750;2023-04-26T05:29:45;98696.94;;;16.12;64.41
32875;BME280;40468;42.128;24.750;2023-04-26T05:31:17;98688.00;;;16.24;63.73
32875;BME280;40468;42.128;24.750;2023-04-26T05:32:49;98687.66;;;16.48;63.25
32875;BME280;40468;42.128;24.750;2023-04-26T05:34:22;98693.66;;;16.70;62.51
32875;BME280;40468;42.128;24.750;2023-04-26T05:35:54;98674.63;;;16.77;61.63
32875;BME280;40468;42.128;24.750;2023-04-26T05:37:27;98689.06;;;17.22;61.42
32875;BME280;40468;42.128;24.750;2023-04-26T05:38:59;98693.06;;;17.45;60.45
32875;BME280;40468;42.128;24.750;2023-04-26T05:40:31;98695.69;;;17.55;59.42
32875;BME280;40468;42.128;24.750;2023-04-26T05:42:03;98692.50;;;17.51;58.96
32875;BME280;40468;42.128;24.750;2023-04-26T05:43:37;98686.53;;;17.49;58.90
32875;BME280;40468;42.128;24.750;2023-04-26T05:45:10;98697.78;;;17.51;58.83
32875;BME280;40468;42.128;24.750;2023-04-26T05:46:42;98687.81;;;17.45;58.30
32875;BME280;40468;42.128;24.750;2023-04-26T05:48:13;98683.53;;;17.25;58.10
32875;BME280;40468;42.128;24.750;2023-04-26T05:49:45;98689.75;;;17.14;58.00
32875;BME280;40468;42.128;24.750;2023-04-26T05:51:17;98695.13;;;17.03;58.08
32875;BME280;40468;42.128;24.750;2023-04-26T05:52:49;98683.38;;;17.07;58.02
32875;BME280;40468;42.128;24.750;2023-04-26T05:54:21;98687.94;;;17.15;57.69
32875;BME280;40468;42.128;24.750;2023-04-26T05:55:53;98678.38;;;17.14;57.18
32875;BME280;40468;42.128;24.750;2023-04-26T05:57:25;98700.53;;;17.21;56.97
32875;BME280;40468;42.128;24.750;2023-04-26T05:59:02;98694.44;;;17.20;56.50
32875;BME280;40468;42.128;24.750;2023-04-26T06:00:34;98699.84;;;17.19;56.57
32875;BME280;40468;42.128;24.750;2023-04-26T06:02:06;98696.69;;;17.25;56.60
32875;BME280;40468;42.128;24.750;2023-04-26T06:03:38;98693.06;;;17.36;56.20
32875;BME280;40468;42.128;24.750;2023-04-26T06:05:11;98690.28;;;17.47;55.86
32875;BME280;40468;42.128;24.750;2023-04-26T06:06:43;98697.19;;;17.58;55.52
32875;BME280;40468;42.128;24.750;2023-04-26T06:08:15;98667.41;;;17.47;55.21
32875;BME280;40468;42.128;24.750;2023-04-26T06:09:47;98701.78;;;17.56;54.84
32875;BME280;40468;42.128;24.750;2023-04-26T06:11:19;98696.38;;;17.47;54.72
32875;BME280;40468;42.128;24.750;2023-04-26T06:12:51;98701.63;;;17.47;54.50
32875;BME280;40468;42.128;24.750;2023-04-26T06:14:25;98696.38;;;17.57;54.12
32875;BME280;40468;42.128;24.750;2023-04-26T06:15:58;98709.25;;;17.60;53.53
32875;BME280;40468;42.128;24.750;2023-04-26T06:17:30;98685.84;;;17.57;53.15
32875;BME280;40468;42.128;24.750;2023-04-26T06:19:02;98696.22;;;17.59;52.88
32875;BME280;40468;42.128;24.750;2023-04-26T06:20:34;98689.16;;;17.49;52.77
32875;BME280;40468;42.128;24.750;2023-04-26T06:22:06;98693.16;;;17.54;52.57
32875;BME280;40468;42.128;24.750;2023-04-26T06:23:38;98692.66;;;17.40;52.39
32875;BME280;40468;42.128;24.750;2023-04-26T06:25:11;98695.13;;;17.32;52.27
32875;BME280;40468;42.128;24.750;2023-04-26T06:26:43;98694.72;;;17.27;52.67
32875;BME280;40468;42.128;24.750;2023-04-26T06:28:15;98683.38;;;17.17;53.08
32875;BME280;40468;42.128;24.750;2023-04-26T06:29:48;98698.47;;;17.24;53.38
32875;BME280;40468;42.128;24.750;2023-04-26T06:31:21;98701.22;;;17.23;53.66
32875;BME280;40468;42.128;24.750;2023-04-26T06:32:53;98691.41;;;17.25;53.85
32875;BME280;40468;42.128;24.750;2023-04-26T06:34:28;98683.25;;;17.28;54.00
32875;BME280;40468;42.128;24.750;2023-04-26T06:36:00;98688.50;;;17.38;54.07
32875;BME280;40468;42.128;24.750;2023-04-26T06:37:33;98634.38;;;17.16;53.85
32875;BME280;40468;42.128;24.750;2023-04-26T06:39:05;98688.34;;;17.49;53.72
32875;BME280;40468;42.128;24.750;2023-04-26T06:40:37;98684.31;;;17.55;53.51
32875;BME280;40468;42.128;24.750;2023-04-26T06:42:09;98684.88;;;17.58;53.51
32875;BME280;40468;42.128;24.750;2023-04-26T06:43:41;98692.75;;;17.68;53.19
32875;BME280;40468;42.128;24.750;2023-04-26T06:45:15;98690.09;;;17.68;52.64
32875;BME280;40468;42.128;24.750;2023-04-26T06:46:48;98677.78;;;17.59;52.15
32875;BME280;40468;42.128;24.750;2023-04-26T06:48:20;98687.63;;;17.57;51.58
32875;BME280;40468;42.128;24.750;2023-04-26T06:49:53;98686.25;;;17.52;51.30
32875;BME280;40468;42.128;24.750;2023-04-26T06:51:32;98693.75;;;17.47;50.92
32875;BME280;40468;42.128;24.750;2023-04-26T06:53:09;98690.84;;;17.41;51.15
32875;BME280;40468;42.128;24.750;2023-04-26T06:55:00;98696.66;;;17.44;51.61
32875;BME280;40468;42.128;24.750;2023-04-26T06:56:39;98692.78;;;17.48;51.41
32875;BME280;40468;42.128;24.750;2023-04-26T06:58:22;98691.25;;;17.56;51.84
32875;BME280;40468;42.128;24.750;2023-04-26T06:59:54;98690.66;;;17.71;51.64
32875;BME280;40468;42.128;24.750;2023-04-26T07:01:28;98689.41;;;17.76;51.57
32875;BME280;40468;42.128;24.750;2023-04-26T07:03:03;98689.69;;;17.82;51.61
32875;BME280;40468;42.128;24.750;2023-04-26T07:04:35;98690.53;;;17.92;51.86
32875;BME280;40468;42.128;24.750;2023-04-26T07:06:07;98669.28;;;17.94;51.66
32875;BME280;40468;42.128;24.750;2023-04-26T07:07:40;98695.00;;;18.19;51.61
32875;BME280;40468;42.128;24.750;2023-04-26T07:09:12;98695.78;;;18.30;51.38
32875;BME280;40468;42.128;24.750;2023-04-26T07:10:44;98696.19;;;18.35;50.61
32875;BME280;40468;42.128;24.750;2023-04-26T07:12:16;98700.06;;;18.31;50.66
32875;BME280;40468;42.128;24.750;2023-04-26T07:13:48;98699.94;;;18.32;50.51
32875;BME280;40468;42.128;24.750;2023-04-26T07:15:20;98694.78;;;18.31;50.26
32875;BME280;40468;42.128;24.750;2023-04-26T07:16:53;98711.06;;;18.26;50.00
32875;BME280;40468;42.128;24.750;2023-04-26T07:18:25;98704.13;;;18.25;49.94
32875;BME280;40468;42.128;24.750;2023-04-26T07:19:57;98667.31;;;18.06;49.79
32875;BME280;40468;42.128;24.750;2023-04-26T07:21:29;98703.09;;;18.36;49.92
32875;BME280;40468;42.128;24.750;2023-04-26T07:23:01;98709.81;;;18.58;50.31
32875;BME280;40468;42.128;24.750;2023-04-26T07:24:33;98710.13;;;18.82;50.17
32875;BME280;40468;42.128;24.750;2023-04-26T07:26:06;98708.78;;;19.14;49.97
32875;BME280;40468;42.128;24.750;2023-04-26T07:27:38;98713.16;;;19.41;49.30
32875;BME280;40468;42.128;24.750;2023-04-26T07:29:09;98703.03;;;19.54;48.48
32875;BME280;40468;42.128;24.750;2023-04-26T07:30:42;98699.75;;;19.61;48.19
32875;BME280;40468;42.128;24.750;2023-04-26T07:32:15;98706.28;;;19.66;47.83
32875;BME280;40468;42.128;24.750;2023-04-26T07:33:47;98709.66;;;19.59;48.00
32875;BME280;40468;42.128;24.750;2023-04-26T07:35:19;98718.50;;;19.49;47.57
32875;BME280;40468;42.128;24.750;2023-04-26T07:36:52;98714.19;;;19.48;46.88
32875;BME280;40468;42.128;24.750;2023-04-26T07:38:24;98713.06;;;19.51;46.70
32875;BME280;40468;42.128;24.750;2023-04-26T07:39:56;98706.97;;;19.50;46.06
32875;BME280;40468;42.128;24.750;2023-04-26T07:41:30;98709.13;;;19.55;45.64
32875;BME280;40468;42.128;24.750;2023-04-26T07:43:02;98705.44;;;19.48;45.68
32875;BME280;40468;42.128;24.750;2023-04-26T07:44:34;98715.47;;;19.62;45.08
32875;BME280;40468;42.128;24.750;2023-04-26T07:46:06;98718.94;;;19.63;45.39
32875;BME280;40468;42.128;24.750;2023-04-26T07:47:40;98722.13;;;19.66;45.13
32875;BME280;40468;42.128;24.750;2023-04-26T07:49:12;98711.56;;;19.66;45.08
32875;BME280;40468;42.128;24.750;2023-04-26T07:50:44;98709.75;;;19.67;45.20
32875;BME280;40468;42.128;24.750;2023-04-26T07:52:16;98706.13;;;19.68;44.77
32875;BME280;40468;42.128;24.750;2023-04-26T07:53:51;98712.94;;;19.70;45.02
32875;BME280;40468;42.128;24.750;2023-04-26T07:55:23;98715.72;;;19.69;44.81
32875;BME280;40468;42.128;24.750;2023-04-26T07:56:56;98713.66;;;19.63;44.69
32875;BME280;40468;42.128;24.750;2023-04-26T07:58:28;98715.25;;;19.55;44.74
32875;BME280;40468;42.128;24.750;2023-04-26T08:00:03;98709.28;;;19.53;44.78
32875;BME280;40468;42.128;24.750;2023-04-26T08:01:35;98714.13;;;19.58;45.02
32875;BME280;40468;42.128;24.750;2023-04-26T08:03:09;98705.97;;;19.69;44.45